Time;durP1;ratioP1;P1;durP2;ratioP2;P2;SDS_P1;SDS_P2;PMS_P1;PMS_P2;Temp;Humidity;BMP_temperature;BMP_pressure;BME280_temperature;BME280_humidity;BME280_pressure;Samples;Min_cycle;Max_cycle;Signal;HPM_P1;HPM_P2
2024/03/19 00:01:42;;;;;;;11.33;7.07;;;;;;;;;;5053175;28;20059;-70
2024/03/19 00:04:08;;;;;;;14.07;7.93;;;;;;;;;;5053170;28;20028;-69
2024/03/19 00:06:35;;;;;;;11.00;6.70;;;;;;;;;;5071683;28;20143;-68
2024/03/19 00:09:02;;;;;;;12.23;5.83;;;;;;;;;;5053178;28;20313;-69
2024/03/19 00:11:29;;;;;;;13.47;6.77;;;;;;;;;;5053243;28;20032;-69
2024/03/19 00:13:56;;;;;;;15.70;7.40;;;;;;;;;;5053175;28;20090;-70
2024/03/19 00:16:21;;;;;;;13.17;7.90;;;;;;;;;;5052978;28;20039;-68
2024/03/19 00:18:47;;;;;;;9.47;6.77;;;;;;;;;;5052900;28;20028;-69
2024/03/19 00:21:13;;;;;;;12.13;6.73;;;;;;;;;;5070921;28;20035;-68
2024/03/19 00:23:38;;;;;;;11.30;7.40;;;;;;;;;;5070528;28;20079;-71
2024/03/19 00:26:07;;;;;;;12.37;7.07;;;;;;;;;;5036188;28;20032;-70
2024/03/19 00:28:33;;;;;;;10.73;6.23;;;;;;;;;;5053046;28;20025;-68
2024/03/19 00:30:59;;;;;;;10.93;7.23;;;;;;;;;;5052616;28;20420;-69
2024/03/19 00:33:28;;;;;;;15.90;8.70;;;;;;;;;;5071110;28;20028;-71
2024/03/19 00:35:55;;;;;;;13.47;7.93;;;;;;;;;;5052931;28;20037;-69
2024/03/19 00:38:22;;;;;;;19.77;8.10;;;;;;;;;;5070798;28;20029;-67
2024/03/19 00:40:48;;;;;;;14.83;7.50;;;;;;;;;;5052014;28;20055;-70
2024/03/19 00:43:13;;;;;;;18.10;6.37;;;;;;;;;;5052522;28;20066;-68
2024/03/19 00:45:39;;;;;;;12.97;6.73;;;;;;;;;;5052588;28;20028;-69
2024/03/19 00:48:05;;;;;;;14.23;8.13;;;;;;;;;;5052521;28;20024;-68
2024/03/19 00:50:31;;;;;;;16.10;7.80;;;;;;;;;;5070460;28;20039;-68
2024/03/19 00:52:57;;;;;;;10.77;7.43;;;;;;;;;;5052399;28;20020;-69
2024/03/19 00:55:22;;;;;;;11.90;7.53;;;;;;;;;;5052307;28;20040;-70
2024/03/19 00:57:48;;;;;;;10.93;7.20;;;;;;;;;;5052117;28;20583;-69
2024/03/19 01:00:16;;;;;;;10.17;6.70;;;;;;;;;;5052533;28;20040;-69
2024/03/19 01:02:44;;;;;;;11.20;7.47;;;;;;;;;;5069646;28;20051;-69
2024/03/19 01:05:11;;;;;;;12.47;7.17;;;;;;;;;;5052444;28;20047;-69
2024/03/19 01:07:41;;;;;;;11.60;6.93;;;;;;;;;;5052661;28;20029;-69
2024/03/19 01:10:11;;;;;;;13.80;7.40;;;;;;;;;;5052625;28;20063;-69
2024/03/19 01:12:38;;;;;;;12.70;7.30;;;;;;;;;;5071053;28;20024;-69
2024/03/19 01:15:08;;;;;;;12.50;7.63;;;;;;;;;;5052866;28;20028;-67
2024/03/19 01:17:36;;;;;;;14.90;7.57;;;;;;;;;;5071552;28;20024;-69
2024/03/19 01:20:04;;;;;;;13.43;7.13;;;;;;;;;;5070914;28;20043;-68
2024/03/19 01:22:30;;;;;;;16.80;7.53;;;;;;;;;;5051928;28;20090;-69
2024/03/19 01:24:55;;;;;;;17.07;7.77;;;;;;;;;;5051018;28;20024;-69
2024/03/19 01:27:21;;;;;;;12.40;7.10;;;;;;;;;;5051444;28;20341;-67
2024/03/19 01:29:47;;;;;;;14.53;6.80;;;;;;;;;;5069384;28;20056;-68
2024/03/19 01:32:12;;;;;;;10.43;7.67;;;;;;;;;;5069441;28;20052;-68
2024/03/19 01:34:38;;;;;;;14.93;7.70;;;;;;;;;;5051589;28;20039;-70
2024/03/19 01:37:04;;;;;;;10.27;7.63;;;;;;;;;;5051220;28;20039;-68
2024/03/19 01:39:30;;;;;;;13.77;7.03;;;;;;;;;;5070021;28;20028;-68
2024/03/19 01:41:57;;;;;;;12.20;7.27;;;;;;;;;;5070069;28;20044;-70
2024/03/19 01:44:23;;;;;;;12.37;7.83;;;;;;;;;;5052615;28;20733;-68
2024/03/19 01:46:49;;;;;;;14.20;7.47;;;;;;;;;;5051852;28;20028;-70
2024/03/19 01:49:17;;;;;;;12.13;6.87;;;;;;;;;;5051689;28;20365;-69
2024/03/19 01:51:43;;;;;;;11.93;6.23;;;;;;;;;;5051587;28;20028;-67
2024/03/19 01:54:10;;;;;;;11.23;7.07;;;;;;;;;;5055069;28;20550;-68
2024/03/19 01:56:38;;;;;;;10.37;6.27;;;;;;;;;;5055568;28;20029;-69
2024/03/19 01:59:04;;;;;;;11.77;7.53;;;;;;;;;;5073901;28;20029;-68
2024/03/19 02:01:29;;;;;;;10.73;7.13;;;;;;;;;;5055841;28;20518;-70
2024/03/19 02:03:55;;;;;;;10.53;6.50;;;;;;;;;;5073063;28;20113;-70
2024/03/19 02:06:21;;;;;;;11.00;6.53;;;;;;;;;;5055741;28;20516;-68
2024/03/19 02:09:05;;;;;;;9.63;6.73;;;;;;;;;;5055473;28;20485;-69
2024/03/19 02:11:31;;;;;;;14.20;7.23;;;;;;;;;;5055540;28;20563;-68
2024/03/19 02:14:01;;;;;;;12.63;7.73;;;;;;;;;;5055760;28;20025;-69
2024/03/19 02:16:27;;;;;;;12.67;7.33;;;;;;;;;;5056218;28;20115;-69
2024/03/19 02:18:58;;;;;;;10.13;5.93;;;;;;;;;;5055978;28;20024;-69
2024/03/19 02:21:27;;;;;;;12.60;6.83;;;;;;;;;;5055745;28;20082;-69
2024/03/19 02:24:02;;;;;;;11.73;6.77;;;;;;;;;;5073532;28;20400;-68
2024/03/19 02:26:29;;;;;;;13.33;7.13;;;;;;;;;;5073731;28;20028;-69
2024/03/19 02:28:56;;;;;;;10.97;6.77;;;;;;;;;;5054703;28;20036;-68
2024/03/19 02:31:24;;;;;;;11.33;7.47;;;;;;;;;;5054919;28;20428;-69
2024/03/19 02:33:51;;;;;;;11.93;7.60;;;;;;;;;;5054751;28;20471;-69
2024/03/19 02:36:17;;;;;;;11.67;6.23;;;;;;;;;;5054541;28;20028;-67
2024/03/19 02:38:43;;;;;;;12.47;7.23;;;;;;;;;;5055129;28;20032;-69
2024/03/19 02:41:10;;;;;;;11.77;7.33;;;;;;;;;;5054761;28;20352;-70
2024/03/19 02:43:39;;;;;;;11.30;6.90;;;;;;;;;;5054505;28;20033;-69
2024/03/19 02:46:05;;;;;;;12.93;7.57;;;;;;;;;;5054197;28;20381;-68
2024/03/19 02:48:31;;;;;;;11.37;6.27;;;;;;;;;;5054632;28;20252;-69
2024/03/19 02:50:56;;;;;;;10.70;6.83;;;;;;;;;;5054456;28;20039;-67
2024/03/19 02:53:23;;;;;;;11.13;7.00;;;;;;;;;;5054426;28;20036;-68
2024/03/19 02:55:49;;;;;;;10.37;6.47;;;;;;;;;;5054236;28;20393;-68
2024/03/19 02:58:18;;;;;;;12.20;7.30;;;;;;;;;;5054381;28;20024;-69
2024/03/19 03:00:43;;;;;;;10.50;6.70;;;;;;;;;;5054498;28;20064;-69
2024/03/19 03:03:09;;;;;;;11.57;7.83;;;;;;;;;;5071371;28;20072;-69
2024/03/19 03:05:36;;;;;;;13.23;6.80;;;;;;;;;;5053933;28;20032;-69
2024/03/19 03:08:05;;;;;;;9.57;6.67;;;;;;;;;;5054850;28;20036;-68
2024/03/19 03:10:32;;;;;;;11.43;7.37;;;;;;;;;;5054455;28;20033;-69
2024/03/19 03:12:57;;;;;;;11.13;6.63;;;;;;;;;;5072178;28;20055;-70
2024/03/19 03:15:23;;;;;;;11.67;7.83;;;;;;;;;;5054371;28;20060;-69
2024/03/19 03:17:49;;;;;;;13.47;6.87;;;;;;;;;;5054352;28;20054;-68
2024/03/19 03:20:15;;;;;;;13.77;7.43;;;;;;;;;;5054173;28;20455;-68
2024/03/19 03:22:40;;;;;;;11.43;7.00;;;;;;;;;;5053918;28;20082;-68
2024/03/19 03:25:11;;;;;;;14.40;7.47;;;;;;;;;;5054021;28;20024;-69
2024/03/19 03:27:40;;;;;;;16.97;7.23;;;;;;;;;;5054015;28;20032;-69
2024/03/19 03:30:10;;;;;;;11.03;7.07;;;;;;;;;;5053638;28;20550;-70
2024/03/19 03:32:48;;;;;;;11.73;7.50;;;;;;;;;;5054023;28;20111;-69
2024/03/19 03:35:13;;;;;;;10.67;7.30;;;;;;;;;;5021588;28;20355;-69
2024/03/19 03:37:40;;;;;;;10.90;6.33;;;;;;;;;;5053780;28;20032;-70
2024/03/19 03:42:38;;;;;;;13.33;6.97;;;;;;;;;;5074077;28;20054;-68
2024/03/19 03:45:04;;;;;;;10.53;7.53;;;;;;;;;;5055235;28;20024;-67
2024/03/19 03:47:30;;;;;;;11.57;7.00;;;;;;;;;;5074494;28;20044;-68
2024/03/19 03:49:57;;;;;;;11.40;7.50;;;;;;;;;;5073897;28;20542;-68
2024/03/19 03:52:25;;;;;;;21.80;8.57;;;;;;;;;;5071509;28;20032;-69
2024/03/19 03:54:51;;;;;;;12.80;7.00;;;;;;;;;;5053062;28;20028;-69
2024/03/19 03:57:16;;;;;;;10.53;6.73;;;;;;;;;;5053339;28;20058;-70
2024/03/19 03:59:42;;;;;;;15.60;7.23;;;;;;;;;;5053536;28;20261;-69
2024/03/19 04:02:08;;;;;;;13.97;6.40;;;;;;;;;;5071139;28;20029;-69
2024/03/19 04:04:33;;;;;;;12.20;7.03;;;;;;;;;;5071193;28;20082;-70
2024/03/19 04:06:59;;;;;;;13.83;7.17;;;;;;;;;;5071121;28;20474;-70
2024/03/19 04:09:24;;;;;;;12.57;7.43;;;;;;;;;;5052859;28;20650;-69
2024/03/19 04:11:50;;;;;;;11.37;7.13;;;;;;;;;;5071595;28;20025;-69
2024/03/19 04:14:17;;;;;;;11.20;6.87;;;;;;;;;;5053192;28;20452;-68
2024/03/19 04:16:43;;;;;;;23.80;7.77;;;;;;;;;;5052758;28;20050;-68
2024/03/19 04:19:09;;;;;;;11.53;7.33;;;;;;;;;;5053115;28;20549;-68
2024/03/19 04:21:35;;;;;;;11.83;7.10;;;;;;;;;;5053032;28;20142;-70
2024/03/19 04:24:01;;;;;;;16.63;7.33;;;;;;;;;;5052764;28;20099;-68
2024/03/19 04:26:28;;;;;;;14.47;7.20;;;;;;;;;;5053208;28;20028;-69
2024/03/19 04:28:54;;;;;;;15.20;7.37;;;;;;;;;;5070923;28;20063;-69
2024/03/19 04:31:20;;;;;;;10.57;7.27;;;;;;;;;;5052799;28;20028;-69
2024/03/19 04:33:46;;;;;;;14.50;6.93;;;;;;;;;;5053050;28;20029;-69
2024/03/19 04:36:12;;;;;;;17.40;8.77;;;;;;;;;;5053021;28;20746;-69
2024/03/19 04:38:37;;;;;;;13.40;7.60;;;;;;;;;;5053567;28;20036;-69
2024/03/19 04:41:03;;;;;;;13.20;7.40;;;;;;;;;;5054863;28;20099;-68
2024/03/19 04:43:29;;;;;;;10.33;7.30;;;;;;;;;;5054653;28;20051;-69
2024/03/19 04:45:54;;;;;;;14.73;7.63;;;;;;;;;;5054411;28;20036;-67
2024/03/19 04:48:20;;;;;;;10.67;6.50;;;;;;;;;;5054608;28;20528;-67
2024/03/19 04:50:46;;;;;;;16.93;9.30;;;;;;;;;;5073904;28;20028;-68
2024/03/19 04:53:11;;;;;;;13.40;7.17;;;;;;;;;;5055379;28;20117;-68
2024/03/19 04:55:37;;;;;;;13.90;7.67;;;;;;;;;;5055733;28;20032;-68
2024/03/19 04:58:05;;;;;;;12.70;7.17;;;;;;;;;;5056096;28;20028;-68
2024/03/19 05:00:30;;;;;;;13.07;7.23;;;;;;;;;;5054334;28;20024;-68
2024/03/19 05:02:56;;;;;;;13.80;8.13;;;;;;;;;;5071065;28;20035;-67
2024/03/19 05:05:22;;;;;;;12.77;7.80;;;;;;;;;;5051912;28;20036;-69
2024/03/19 05:07:47;;;;;;;12.77;7.37;;;;;;;;;;5070168;28;20082;-68
2024/03/19 05:10:13;;;;;;;13.60;7.30;;;;;;;;;;5053562;28;20284;-68
2024/03/19 05:12:38;;;;;;;18.90;7.37;;;;;;;;;;5053888;28;20021;-67
2024/03/19 05:15:06;;;;;;;14.53;7.37;;;;;;;;;;5054009;28;20078;-68
2024/03/19 05:17:33;;;;;;;11.13;7.77;;;;;;;;;;5072531;28;20492;-68
2024/03/19 05:19:59;;;;;;;11.40;6.73;;;;;;;;;;5072901;28;20033;-70
2024/03/19 05:22:25;;;;;;;11.87;7.13;;;;;;;;;;5055361;28;20460;-70
2024/03/19 05:24:51;;;;;;;15.00;8.50;;;;;;;;;;5055564;28;20028;-68
2024/03/19 05:27:17;;;;;;;15.07;7.60;;;;;;;;;;5055640;28;20064;-69
2024/03/19 05:29:43;;;;;;;12.27;7.83;;;;;;;;;;5077186;28;20048;-69
2024/03/19 05:32:09;;;;;;;12.43;8.43;;;;;;;;;;5059300;28;20032;-68
2024/03/19 05:34:39;;;;;;;16.37;8.13;;;;;;;;;;5059135;28;20495;-69
2024/03/19 05:37:06;;;;;;;25.60;9.00;;;;;;;;;;5058438;28;20036;-69
2024/03/19 05:39:33;;;;;;;13.30;7.30;;;;;;;;;;5057502;28;20422;-67
2024/03/19 05:41:59;;;;;;;13.27;7.90;;;;;;;;;;5057746;28;20067;-69
2024/03/19 05:44:24;;;;;;;13.17;7.70;;;;;;;;;;5056805;28;20052;-69
2024/03/19 05:46:51;;;;;;;21.67;8.37;;;;;;;;;;5075159;28;20035;-68
2024/03/19 05:49:17;;;;;;;14.87;8.67;;;;;;;;;;5056009;28;20029;-69
2024/03/19 05:51:42;;;;;;;19.73;9.83;;;;;;;;;;5057433;28;20048;-68
2024/03/19 05:54:08;;;;;;;16.17;8.07;;;;;;;;;;5057015;28;20074;-71
2024/03/19 05:56:34;;;;;;;19.60;8.00;;;;;;;;;;5056902;28;20036;-68
2024/03/19 05:59:00;;;;;;;14.90;8.23;;;;;;;;;;5056686;28;20036;-69
2024/03/19 06:01:25;;;;;;;15.17;8.13;;;;;;;;;;5040314;28;20033;-68
2024/03/19 06:03:51;;;;;;;22.47;8.53;;;;;;;;;;5056015;28;20123;-70
2024/03/19 06:06:18;;;;;;;17.43;7.90;;;;;;;;;;5056576;28;20032;-70
2024/03/19 06:08:44;;;;;;;14.17;7.77;;;;;;;;;;5057009;28;20055;-69
2024/03/19 06:11:12;;;;;;;14.47;8.47;;;;;;;;;;5056551;28;20058;-69
2024/03/19 06:13:37;;;;;;;14.33;8.67;;;;;;;;;;5055718;28;20024;-69
2024/03/19 06:16:05;;;;;;;13.90;8.87;;;;;;;;;;5055020;28;20032;-68
2024/03/19 06:18:31;;;;;;;16.40;8.70;;;;;;;;;;5055335;28;20383;-69
2024/03/19 06:20:56;;;;;;;13.63;8.53;;;;;;;;;;5055693;28;20385;-69
2024/03/19 06:23:24;;;;;;;12.93;8.17;;;;;;;;;;5054685;28;20051;-70
2024/03/19 06:25:50;;;;;;;14.77;8.77;;;;;;;;;;5055002;28;20162;-71
2024/03/19 06:28:16;;;;;;;14.03;8.43;;;;;;;;;;5054746;28;20596;-70
2024/03/19 06:30:41;;;;;;;15.90;9.07;;;;;;;;;;5038508;28;20036;-69
2024/03/19 06:33:08;;;;;;;15.40;8.57;;;;;;;;;;5073479;28;20099;-69
2024/03/19 06:35:37;;;;;;;18.37;9.60;;;;;;;;;;5057891;28;20028;-70
2024/03/19 06:38:06;;;;;;;15.10;9.60;;;;;;;;;;5057141;28;20039;-69
2024/03/19 06:40:33;;;;;;;17.37;9.43;;;;;;;;;;5073421;28;20059;-70
2024/03/19 06:42:59;;;;;;;15.63;9.30;;;;;;;;;;5034387;28;20068;-71
2024/03/19 06:45:29;;;;;;;16.03;9.63;;;;;;;;;;5048031;28;20071;-69
2024/03/19 06:47:59;;;;;;;21.03;9.00;;;;;;;;;;5055107;28;20440;-70
2024/03/19 06:50:31;;;;;;;16.83;9.50;;;;;;;;;;5072067;28;20051;-69
2024/03/19 06:53:00;;;;;;;16.53;8.77;;;;;;;;;;5054501;28;20059;-72
2024/03/19 06:55:26;;;;;;;24.67;10.40;;;;;;;;;;5043329;28;20036;-67
2024/03/19 06:57:52;;;;;;;19.90;9.57;;;;;;;;;;5034788;28;20032;-70
2024/03/19 07:00:22;;;;;;;14.77;9.23;;;;;;;;;;5041798;28;20067;-70
2024/03/19 07:03:01;;;;;;;17.67;9.68;;;;;;;;;;5045882;28;20112;-72
2024/03/19 07:05:37;;;;;;;20.03;8.63;;;;;;;;;;5056166;28;20840;-70
2024/03/19 07:08:03;;;;;;;18.37;9.93;;;;;;;;;;5046450;28;20028;-71
2024/03/19 07:10:29;;;;;;;20.07;10.60;;;;;;;;;;5044823;28;20028;-72
2024/03/19 07:12:55;;;;;;;15.83;9.53;;;;;;;;;;5051716;28;20032;-69
2024/03/19 07:15:22;;;;;;;18.40;9.83;;;;;;;;;;5066175;28;20106;-70
2024/03/19 07:17:57;;;;;;;18.47;10.83;;;;;;;;;;5065080;28;20024;-69
2024/03/19 07:20:24;;;;;;;20.00;10.10;;;;;;;;;;5043986;28;20364;-70
2024/03/19 07:22:52;;;;;;;21.43;10.37;;;;;;;;;;5071015;28;20129;-69
2024/03/19 07:25:19;;;;;;;18.67;9.10;;;;;;;;;;5045294;28;20032;-71
2024/03/19 07:27:45;;;;;;;20.80;11.20;;;;;;;;;;5072121;28;20025;-72
2024/03/19 07:30:13;;;;;;;21.20;11.10;;;;;;;;;;5058051;28;20031;-69
2024/03/19 07:32:42;;;;;;;18.00;10.43;;;;;;;;;;5060816;28;20020;-69
2024/03/19 07:35:09;;;;;;;17.07;10.67;;;;;;;;;;5049158;28;20029;-71
2024/03/19 07:37:36;;;;;;;16.67;10.07;;;;;;;;;;5064599;28;20016;-70
2024/03/19 07:40:09;;;;;;;21.63;10.23;;;;;;;;;;5061887;28;20021;-70
2024/03/19 07:42:35;;;;;;;19.20;10.17;;;;;;;;;;5063760;28;20040;-72
2024/03/19 07:45:01;;;;;;;20.73;10.87;;;;;;;;;;5056634;28;20040;-70
2024/03/19 07:47:29;;;;;;;16.70;9.93;;;;;;;;;;5061190;28;20174;-69
2024/03/19 07:49:55;;;;;;;18.27;11.17;;;;;;;;;;5064800;28;20079;-72
2024/03/19 07:52:23;;;;;;;20.37;10.83;;;;;;;;;;5058751;28;20495;-70
2024/03/19 07:54:52;;;;;;;22.63;11.20;;;;;;;;;;5038597;28;20180;-69
2024/03/19 07:57:19;;;;;;;18.83;10.67;;;;;;;;;;5065024;28;20040;-71
2024/03/19 07:59:44;;;;;;;25.53;11.63;;;;;;;;;;5052687;28;20046;-70
2024/03/19 08:02:10;;;;;;;31.87;13.50;;;;;;;;;;5045691;28;20032;-69
2024/03/19 08:04:35;;;;;;;24.20;11.23;;;;;;;;;;5058244;28;20037;-70
2024/03/19 08:07:05;;;;;;;22.20;12.50;;;;;;;;;;5040964;28;20036;-69
2024/03/19 08:09:32;;;;;;;20.27;11.10;;;;;;;;;;5022225;28;20115;-73
2024/03/19 08:12:05;;;;;;;20.77;11.63;;;;;;;;;;5056009;28;20094;-70
2024/03/19 08:14:33;;;;;;;20.60;11.53;;;;;;;;;;5058734;28;20032;-71
2024/03/19 08:17:04;;;;;;;17.77;9.93;;;;;;;;;;5039409;28;20492;-70
2024/03/19 08:19:31;;;;;;;19.63;11.00;;;;;;;;;;5041257;28;20047;-71
2024/03/19 08:21:57;;;;;;;18.43;10.60;;;;;;;;;;5044641;28;20039;-73
2024/03/19 08:24:25;;;;;;;16.57;10.97;;;;;;;;;;5022024;28;20028;-73
2024/03/19 08:26:51;;;;;;;22.40;11.30;;;;;;;;;;5043121;28;20033;-69
2024/03/19 08:29:18;;;;;;;22.13;11.97;;;;;;;;;;5023434;28;20041;-70
2024/03/19 08:31:47;;;;;;;20.67;11.57;;;;;;;;;;5056646;28;20457;-70
2024/03/19 08:34:14;;;;;;;22.00;11.93;;;;;;;;;;5065377;28;20096;-69
2024/03/19 08:36:40;;;;;;;21.30;12.87;;;;;;;;;;5070052;28;20365;-69
2024/03/19 08:39:07;;;;;;;17.60;11.13;;;;;;;;;;5070066;28;20415;-68
2024/03/19 08:41:33;;;;;;;16.97;11.33;;;;;;;;;;5044280;28;20039;-69
2024/03/19 08:43:59;;;;;;;18.80;12.17;;;;;;;;;;5052954;28;20029;-71
2024/03/19 08:46:30;;;;;;;28.23;11.93;;;;;;;;;;5067720;28;20499;-70
2024/03/19 08:48:56;;;;;;;21.80;11.52;;;;;;;;;;5045166;28;20032;-72
2024/03/19 08:51:31;;;;;;;21.27;12.07;;;;;;;;;;5057909;28;20079;-73
2024/03/19 08:54:01;;;;;;;30.93;12.17;;;;;;;;;;5055453;28;20465;-69
2024/03/19 08:56:32;;;;;;;25.13;12.27;;;;;;;;;;5040992;28;20398;-70
2024/03/19 08:58:58;;;;;;;23.02;12.82;;;;;;;;;;5047015;28;20051;-71
2024/03/19 09:01:24;;;;;;;21.27;12.40;;;;;;;;;;5057575;28;20174;-70
2024/03/19 09:03:51;;;;;;;22.00;11.87;;;;;;;;;;5041321;28;20064;-70
2024/03/19 09:06:18;;;;;;;20.67;11.73;;;;;;;;;;5061091;28;20025;-70
2024/03/19 09:08:43;;;;;;;19.47;12.03;;;;;;;;;;5062530;28;20028;-70
2024/03/19 09:11:14;;;;;;;23.40;12.70;;;;;;;;;;5042137;28;20134;-72
2024/03/19 09:13:40;;;;;;;24.30;12.43;;;;;;;;;;5018438;28;20417;-72
2024/03/19 09:16:06;;;;;;;28.40;12.10;;;;;;;;;;5056990;28;20028;-70
2024/03/19 09:18:32;;;;;;;22.77;12.13;;;;;;;;;;5045654;28;20055;-70
2024/03/19 09:20:59;;;;;;;21.63;12.53;;;;;;;;;;5064393;28;20046;-70
2024/03/19 09:23:24;;;;;;;23.60;12.17;;;;;;;;;;5044900;28;20024;-71
2024/03/19 09:25:52;;;;;;;22.93;12.73;;;;;;;;;;5044336;28;20396;-69
2024/03/19 09:28:17;;;;;;;20.77;12.47;;;;;;;;;;5057314;28;20076;-70
2024/03/19 09:30:43;;;;;;;22.50;12.70;;;;;;;;;;5043665;28;20479;-69
2024/03/19 09:33:12;;;;;;;19.70;12.03;;;;;;;;;;5061797;28;20047;-71
2024/03/19 09:35:37;;;;;;;26.03;12.67;;;;;;;;;;5040685;28;20028;-71
2024/03/19 09:38:05;;;;;;;23.33;12.33;;;;;;;;;;5045088;28;20025;-67
2024/03/19 09:40:31;;;;;;;25.70;13.50;;;;;;;;;;5064010;28;20028;-71
2024/03/19 09:42:57;;;;;;;21.47;11.93;;;;;;;;;;5042498;28;20036;-70
2024/03/19 09:45:27;;;;;;;23.00;12.55;;;;;;;;;;5064397;28;20021;-70
2024/03/19 09:47:57;;;;;;;21.70;13.00;;;;;;;;;;5038156;28;20030;-69
2024/03/19 09:50:25;;;;;;;23.33;13.03;;;;;;;;;;5033210;28;20028;-69
2024/03/19 09:52:57;;;;;;;20.53;12.20;;;;;;;;;;5037492;28;20020;-68
2024/03/19 09:55:25;;;;;;;21.65;13.35;;;;;;;;;;5029904;28;20033;-70
2024/03/19 09:57:52;;;;;;;26.47;12.80;;;;;;;;;;5039782;28;20112;-70
2024/03/19 10:00:28;;;;;;;21.00;11.53;;;;;;;;;;5040569;28;20083;-70
2024/03/19 10:02:55;;;;;;;18.03;10.87;;;;;;;;;;5033464;28;20035;-69
2024/03/19 10:05:22;;;;;;;22.30;12.03;;;;;;;;;;5043501;28;20502;-70
2024/03/19 10:07:51;;;;;;;25.27;12.40;;;;;;;;;;5043277;28;20484;-68
2024/03/19 10:10:18;;;;;;;17.30;10.90;;;;;;;;;;5020019;28;20055;-70
2024/03/19 10:12:43;;;;;;;17.70;10.13;;;;;;;;;;5020307;28;20143;-69
2024/03/19 10:15:17;;;;;;;19.77;10.45;;;;;;;;;;5049355;28;20111;-71
2024/03/19 10:17:46;;;;;;;17.50;10.57;;;;;;;;;;5038742;28;20040;-71
2024/03/19 10:20:11;;;;;;;16.10;10.25;;;;;;;;;;5047105;28;20028;-70
2024/03/19 10:22:37;;;;;;;20.23;11.63;;;;;;;;;;5063037;28;20358;-71
2024/03/19 10:25:12;;;;;;;21.65;10.70;;;;;;;;;;5048257;28;20040;-71
2024/03/19 10:27:42;;;;;;;19.38;10.27;;;;;;;;;;5044766;28;20357;-70
2024/03/19 10:30:12;;;;;;;21.23;10.80;;;;;;;;;;5047226;28;20495;-71
2024/03/19 10:32:40;;;;;;;19.85;11.02;;;;;;;;;;5047784;28;20459;-73
2024/03/19 10:35:18;;;;;;;21.25;11.68;;;;;;;;;;5048769;28;20024;-71
2024/03/19 10:37:48;;;;;;;24.13;11.63;;;;;;;;;;5046333;28;20028;-69
2024/03/19 10:40:16;;;;;;;17.52;10.38;;;;;;;;;;5046064;28;20118;-69
2024/03/19 10:42:43;;;;;;;16.58;9.45;;;;;;;;;;5043895;28;20051;-70
2024/03/19 10:45:14;;;;;;;18.60;10.65;;;;;;;;;;5051263;28;20380;-68
2024/03/19 10:47:40;;;;;;;19.02;10.27;;;;;;;;;;5061389;28;20029;-69
2024/03/19 10:50:11;;;;;;;20.85;10.68;;;;;;;;;;5030031;28;20095;-71
2024/03/19 10:52:38;;;;;;;20.67;10.68;;;;;;;;;;5047403;28;20047;-70
2024/03/19 10:55:13;;;;;;;17.98;10.45;;;;;;;;;;5059390;28;20059;-71
2024/03/19 10:57:40;;;;;;;16.25;9.93;;;;;;;;;;5041376;28;20156;-70
2024/03/19 11:00:27;;;;;;;47.63;21.95;;;;;;;;;;5042154;28;20058;-74
2024/03/19 11:02:59;;;;;;;21.70;10.57;;;;;;;;;;5050025;28;20035;-71
2024/03/19 11:05:26;;;;;;;16.73;10.82;;;;;;;;;;5050006;28;20120;-69
2024/03/19 11:07:55;;;;;;;16.63;9.88;;;;;;;;;;5069297;28;20050;-70
2024/03/19 11:10:21;;;;;;;16.23;9.75;;;;;;;;;;5038598;28;20433;-69
2024/03/19 11:12:55;;;;;;;15.23;9.98;;;;;;;;;;5040179;28;20021;-71
2024/03/19 11:15:21;;;;;;;22.00;10.65;;;;;;;;;;5058968;28;20029;-70
2024/03/19 11:17:47;;;;;;;16.65;10.15;;;;;;;;;;5050019;28;20119;-71
2024/03/19 11:20:17;;;;;;;21.42;10.45;;;;;;;;;;5054376;28;20098;-71
2024/03/19 11:22:46;;;;;;;22.52;11.13;;;;;;;;;;5047226;28;20029;-70
2024/03/19 11:25:14;;;;;;;16.73;9.65;;;;;;;;;;5036144;28;20496;-69
2024/03/19 11:27:49;;;;;;;19.35;9.88;;;;;;;;;;5049846;28;20043;-68
2024/03/19 11:30:17;;;;;;;14.73;9.65;;;;;;;;;;5050462;28;20025;-71
2024/03/19 11:32:44;;;;;;;19.35;9.25;;;;;;;;;;5054271;28;20039;-71
2024/03/19 11:35:18;;;;;;;18.58;9.63;;;;;;;;;;5060815;28;20028;-71
2024/03/19 11:37:46;;;;;;;15.07;9.63;;;;;;;;;;5045212;28;20024;-69
2024/03/19 11:40:12;;;;;;;14.93;8.73;;;;;;;;;;5033618;28;20036;-71
2024/03/19 11:42:38;;;;;;;16.33;9.07;;;;;;;;;;5041988;28;20051;-70
2024/03/19 11:45:04;;;;;;;14.73;9.00;;;;;;;;;;5038052;28;20066;-70
2024/03/19 11:47:30;;;;;;;16.02;9.38;;;;;;;;;;5039881;28;20372;-71
2024/03/19 11:49:56;;;;;;;14.63;9.95;;;;;;;;;;5030736;28;20456;-71
2024/03/19 11:52:23;;;;;;;18.33;10.60;;;;;;;;;;5048788;28;20021;-69
2024/03/19 11:54:49;;;;;;;16.20;9.73;;;;;;;;;;5049015;28;20041;-69
2024/03/19 11:57:16;;;;;;;16.80;8.85;;;;;;;;;;5037266;28;20024;-73
2024/03/19 11:59:42;;;;;;;16.40;9.43;;;;;;;;;;5032960;28;20025;-68
2024/03/19 12:02:11;;;;;;;16.55;9.52;;;;;;;;;;5036784;28;20024;-70
2024/03/19 12:04:40;;;;;;;17.85;9.27;;;;;;;;;;5072263;28;20024;-69
2024/03/19 12:07:11;;;;;;;26.48;15.15;;;;;;;;;;5054873;28;20028;-70
2024/03/19 12:09:38;;;;;;;17.85;10.63;;;;;;;;;;5049768;28;20048;-70
2024/03/19 12:12:08;;;;;;;15.93;9.93;;;;;;;;;;5048568;28;20082;-69
2024/03/19 12:14:35;;;;;;;17.52;10.30;;;;;;;;;;5067735;28;20503;-70
2024/03/19 12:17:01;;;;;;;17.50;9.75;;;;;;;;;;5052844;28;20036;-71
2024/03/19 12:19:29;;;;;;;14.35;9.07;;;;;;;;;;5063596;28;20033;-69
2024/03/19 12:21:55;;;;;;;15.90;9.85;;;;;;;;;;5052098;28;20425;-69
2024/03/19 12:24:20;;;;;;;21.25;10.93;;;;;;;;;;5070777;28;20052;-69
2024/03/19 12:26:50;;;;;;;14.68;9.27;;;;;;;;;;5034539;28;20067;-69
2024/03/19 12:29:22;;;;;;;16.77;9.23;;;;;;;;;;5035084;28;20110;-69
2024/03/19 12:32:02;;;;;;;15.05;8.98;;;;;;;;;;5052765;28;20024;-68
2024/03/19 12:37:10;;;;;;;15.95;9.02;;;;;;;;;;5069221;28;20028;-69
2024/03/19 12:39:35;;;;;;;18.55;9.30;;;;;;;;;;5052201;28;20425;-69
2024/03/19 12:42:03;;;;;;;13.38;8.45;;;;;;;;;;5034900;28;20095;-69
2024/03/19 12:44:29;;;;;;;20.05;9.52;;;;;;;;;;5039545;28;20107;-68
2024/03/19 12:46:56;;;;;;;15.65;8.70;;;;;;;;;;5072346;28;20036;-70
2024/03/19 12:49:25;;;;;;;17.75;9.15;;;;;;;;;;5034792;28;20033;-68
2024/03/19 12:51:50;;;;;;;16.50;8.85;;;;;;;;;;5032082;28;20024;-69
2024/03/19 12:54:17;;;;;;;12.82;8.32;;;;;;;;;;5052590;28;20341;-69
2024/03/19 12:56:42;;;;;;;13.75;8.07;;;;;;;;;;5050919;28;20412;-69
2024/03/19 12:59:09;;;;;;;13.90;7.85;;;;;;;;;;5070827;28;20115;-68
2024/03/19 13:01:35;;;;;;;14.18;7.47;;;;;;;;;;5072172;28;20027;-69
2024/03/19 13:04:01;;;;;;;11.90;7.25;;;;;;;;;;5043533;28;20111;-70
2024/03/19 13:06:26;;;;;;;12.43;7.82;;;;;;;;;;5052119;28;20040;-70
2024/03/19 13:08:52;;;;;;;15.50;8.25;;;;;;;;;;5058820;28;20036;-70
2024/03/19 13:11:20;;;;;;;12.20;7.95;;;;;;;;;;5043332;28;20031;-71
2024/03/19 13:13:46;;;;;;;20.67;11.07;;;;;;;;;;5068605;28;20024;-70
2024/03/19 13:16:11;;;;;;;14.80;8.88;;;;;;;;;;5059670;28;20090;-73
2024/03/19 13:18:37;;;;;;;14.27;8.15;;;;;;;;;;5062817;28;20397;-70
2024/03/19 13:21:04;;;;;;;24.25;10.27;;;;;;;;;;5044368;28;20028;-71
2024/03/19 13:23:30;;;;;;;20.17;10.10;;;;;;;;;;5050407;28;20029;-70
2024/03/19 13:25:55;;;;;;;12.55;7.70;;;;;;;;;;5049618;28;20568;-73
2024/03/19 13:28:22;;;;;;;16.38;8.20;;;;;;;;;;5042922;28;20021;-69
2024/03/19 13:30:48;;;;;;;18.45;9.52;;;;;;;;;;5061420;28;20029;-70
2024/03/19 13:33:14;;;;;;;16.67;8.80;;;;;;;;;;5020984;28;20074;-72
2024/03/19 13:35:40;;;;;;;11.18;7.40;;;;;;;;;;5064077;28;20114;-72
2024/03/19 13:38:06;;;;;;;11.23;7.50;;;;;;;;;;5057627;28;20027;-69
2024/03/19 13:40:33;;;;;;;11.05;6.68;;;;;;;;;;5040997;28;20029;-69
2024/03/19 13:42:59;;;;;;;9.68;6.97;;;;;;;;;;5042858;28;20452;-73
2024/03/19 13:45:25;;;;;;;14.50;7.50;;;;;;;;;;5059298;28;20036;-70
2024/03/19 13:47:51;;;;;;;11.55;7.15;;;;;;;;;;5031337;28;20032;-68
2024/03/19 13:50:17;;;;;;;11.20;6.60;;;;;;;;;;5025423;28;20033;-72
2024/03/19 13:52:43;;;;;;;12.00;7.60;;;;;;;;;;5061927;28;20031;-69
2024/03/19 13:55:09;;;;;;;11.70;7.35;;;;;;;;;;5069126;28;20020;-70
2024/03/19 13:57:35;;;;;;;10.80;6.68;;;;;;;;;;5046768;28;20389;-68
2024/03/19 14:00:14;;;;;;;11.77;7.25;;;;;;;;;;5059431;28;20056;-70
2024/03/19 14:02:40;;;;;;;12.85;7.35;;;;;;;;;;5063677;28;20017;-70
2024/03/19 14:05:08;;;;;;;12.63;7.20;;;;;;;;;;5041755;28;20055;-71
2024/03/19 14:07:35;;;;;;;9.07;6.55;;;;;;;;;;5060690;28;20065;-71
2024/03/19 14:10:04;;;;;;;13.77;7.43;;;;;;;;;;5065367;28;20460;-72
2024/03/19 14:12:33;;;;;;;11.30;6.43;;;;;;;;;;5063573;28;20013;-71
2024/03/19 14:15:02;;;;;;;11.23;6.65;;;;;;;;;;5041803;28;20036;-71
2024/03/19 14:17:27;;;;;;;10.95;6.70;;;;;;;;;;5042933;28;20068;-73
2024/03/19 14:19:53;;;;;;;11.25;6.28;;;;;;;;;;5062560;28;20051;-72
2024/03/19 14:22:18;;;;;;;15.07;7.45;;;;;;;;;;5044499;28;20037;-73
2024/03/19 14:24:47;;;;;;;9.93;6.20;;;;;;;;;;5050331;28;20040;-71
2024/03/19 14:27:13;;;;;;;16.02;9.55;;;;;;;;;;5066874;28;20468;-71
2024/03/19 14:29:39;;;;;;;12.45;7.45;;;;;;;;;;5045567;28;20035;-69
2024/03/19 14:32:08;;;;;;;19.35;11.38;;;;;;;;;;5031434;28;20036;-73